Time;durP1;ratioP1;P1;durP2;ratioP2;P2;SDS_P1;SDS_P2;PMS_P1;PMS_P2;Temp;Humidity;BMP_temperature;BMP_pressure;BME280_temperature;BME280_humidity;BME280_pressure;Samples;Min_cycle;Max_cycle;Signal;HPM_P1;HPM_P2
2022/07/01 00:00:07;;;;;;;1999.90;999.90;;;;;;;;;;5044927;27;20815;-74
2022/07/01 00:02:39;;;;;;;1999.90;999.90;;;;;;;;;;5048073;27;21038;-74
2022/07/01 00:05:08;;;;;;;1999.90;999.90;;;;;;;;;;5048348;27;20895;-76
2022/07/01 00:07:45;;;;;;;1999.90;999.90;;;;;;;;;;5033207;27;20401;-74
2022/07/01 00:10:14;;;;;;;1999.90;999.90;;;;;;;;;;5034049;27;20533;-74
2022/07/01 00:12:42;;;;;;;1999.90;999.90;;;;;;;;;;5063313;27;20395;-77
2022/07/01 00:15:10;;;;;;;1999.90;999.90;;;;;;;;;;5047391;27;20514;-74
2022/07/01 00:17:38;;;;;;;1999.90;999.90;;;;;;;;;;5044600;27;20465;-75
2022/07/01 00:20:07;;;;;;;1999.90;999.90;;;;;;;;;;5028686;27;20396;-74
2022/07/01 00:22:35;;;;;;;1999.90;999.90;;;;;;;;;;5046150;27;20401;-75
2022/07/01 00:25:03;;;;;;;1999.90;999.90;;;;;;;;;;5045393;27;20491;-75
2022/07/01 00:27:32;;;;;;;1999.90;999.90;;;;;;;;;;5044737;27;20395;-75
2022/07/01 00:30:00;;;;;;;1999.90;999.90;;;;;;;;;;5042592;27;21626;-75
2022/07/01 00:32:28;;;;;;;1999.90;999.90;;;;;;;;;;5043455;27;20465;-76
2022/07/01 00:34:56;;;;;;;1999.90;999.90;;;;;;;;;;5043164;27;20402;-74
2022/07/01 00:37:24;;;;;;;1999.90;999.90;;;;;;;;;;5062335;27;20989;-75
2022/07/01 00:39:52;;;;;;;1999.90;999.90;;;;;;;;;;5059263;27;20410;-74
2022/07/01 00:42:20;;;;;;;1999.90;999.90;;;;;;;;;;5044349;27;20518;-74
2022/07/01 00:44:49;;;;;;;1999.90;999.90;;;;;;;;;;5060337;27;20422;-74
2022/07/01 00:47:17;;;;;;;1999.90;999.90;;;;;;;;;;5059073;27;20401;-75
2022/07/01 00:49:45;;;;;;;1999.90;999.90;;;;;;;;;;5039732;27;20399;-75
2022/07/01 00:52:13;;;;;;;1999.90;999.90;;;;;;;;;;5045682;27;20402;-74
2022/07/01 00:54:41;;;;;;;1999.90;999.90;;;;;;;;;;5061965;27;20885;-76
2022/07/01 00:57:09;;;;;;;1999.90;999.90;;;;;;;;;;5059952;27;20831;-75
2022/07/01 00:59:37;;;;;;;1999.90;999.90;;;;;;;;;;5042381;27;20881;-75
2022/07/01 01:02:08;;;;;;;1999.90;999.90;;;;;;;;;;5042531;27;20937;-74
2022/07/01 01:04:36;;;;;;;1999.90;999.90;;;;;;;;;;5040315;27;20421;-75
2022/07/01 01:07:05;;;;;;;1999.90;999.90;;;;;;;;;;5043687;27;20437;-74
2022/07/01 01:09:33;;;;;;;1999.90;999.90;;;;;;;;;;5058512;27;20399;-74
2022/07/01 01:12:01;;;;;;;1999.90;999.90;;;;;;;;;;5057782;27;20995;-74
2022/07/01 01:14:29;;;;;;;1999.90;999.90;;;;;;;;;;5064109;27;20403;-75
2022/07/01 01:16:57;;;;;;;1999.90;999.90;;;;;;;;;;5061021;27;20399;-74
2022/07/01 01:19:26;;;;;;;1999.90;999.90;;;;;;;;;;5057800;27;20393;-74
2022/07/01 01:21:55;;;;;;;1999.90;999.90;;;;;;;;;;5040683;27;20391;-73
2022/07/01 01:24:23;;;;;;;1999.90;999.90;;;;;;;;;;5046926;27;20416;-74
2022/07/01 01:26:51;;;;;;;1999.90;999.90;;;;;;;;;;5027033;27;20386;-74
2022/07/01 01:29:19;;;;;;;1999.90;999.90;;;;;;;;;;5025975;27;20409;-74
2022/07/01 01:31:46;;;;;;;1999.90;999.90;;;;;;;;;;5027665;27;20471;-75
2022/07/01 01:34:14;;;;;;;1999.90;999.90;;;;;;;;;;5051707;27;20438;-75
2022/07/01 01:36:42;;;;;;;1999.90;999.90;;;;;;;;;;5047888;27;20401;-74
2022/07/01 01:39:12;;;;;;;1999.90;999.90;;;;;;;;;;5028610;27;20387;-74
2022/07/01 01:41:40;;;;;;;1999.90;999.90;;;;;;;;;;5030645;27;20419;-76
2022/07/01 01:44:08;;;;;;;1999.90;999.90;;;;;;;;;;5052325;27;20425;-74
2022/07/01 01:46:36;;;;;;;1999.90;999.90;;;;;;;;;;5044807;27;20420;-75
2022/07/01 01:49:04;;;;;;;1999.90;999.90;;;;;;;;;;5036901;27;20446;-75
2022/07/01 01:51:32;;;;;;;1999.90;999.90;;;;;;;;;;5045940;27;20403;-76
2022/07/01 01:54:00;;;;;;;1999.90;999.90;;;;;;;;;;5060862;27;20409;-75
2022/07/01 01:56:29;;;;;;;1999.90;999.90;;;;;;;;;;5066159;27;20481;-76
2022/07/01 01:58:57;;;;;;;1999.90;999.90;;;;;;;;;;5047396;27;20486;-75
2022/07/01 02:01:25;;;;;;;1999.90;999.90;;;;;;;;;;5030403;27;20415;-74
2022/07/01 02:03:53;;;;;;;1999.90;999.90;;;;;;;;;;5031423;27;20462;-75
2022/07/01 02:06:21;;;;;;;1999.90;999.90;;;;;;;;;;5048486;27;20920;-76
2022/07/01 02:08:49;;;;;;;1999.90;999.90;;;;;;;;;;5054563;27;21309;-77
2022/07/01 02:11:17;;;;;;;1999.90;999.90;;;;;;;;;;5028771;27;20409;-76
2022/07/01 02:13:46;;;;;;;1999.90;999.90;;;;;;;;;;5032787;27;20410;-75
2022/07/01 02:16:14;;;;;;;1999.90;999.90;;;;;;;;;;5045523;27;20909;-76
2022/07/01 02:18:42;;;;;;;1999.90;999.90;;;;;;;;;;5042907;27;20711;-79
2022/07/01 02:21:09;;;;;;;1999.90;999.90;;;;;;;;;;5048345;27;20508;-76
2022/07/01 02:23:38;;;;;;;1999.90;999.90;;;;;;;;;;5043307;27;20413;-76
2022/07/01 02:26:05;;;;;;;1999.90;999.90;;;;;;;;;;5038487;27;20531;-75
2022/07/01 02:28:33;;;;;;;1999.90;999.90;;;;;;;;;;5047267;27;20442;-76
2022/07/01 02:31:03;;;;;;;1999.90;999.90;;;;;;;;;;5039493;27;20455;-76
2022/07/01 02:33:31;;;;;;;1999.90;999.90;;;;;;;;;;5052455;27;20496;-76
2022/07/01 02:35:59;;;;;;;1999.90;999.90;;;;;;;;;;5058149;27;20390;-77
2022/07/01 02:38:26;;;;;;;1999.90;999.90;;;;;;;;;;5063440;27;20467;-76
2022/07/01 02:40:54;;;;;;;1999.90;999.90;;;;;;;;;;5058289;27;20414;-77
2022/07/01 02:43:22;;;;;;;1999.90;999.90;;;;;;;;;;5062123;27;20420;-76
2022/07/01 02:45:50;;;;;;;1999.90;999.90;;;;;;;;;;5061925;27;20413;-76
2022/07/01 02:48:19;;;;;;;1999.90;999.90;;;;;;;;;;5050944;27;20904;-77
2022/07/01 02:50:47;;;;;;;1999.90;999.90;;;;;;;;;;5060800;27;20387;-77
2022/07/01 02:53:15;;;;;;;1999.90;999.90;;;;;;;;;;5045801;27;20403;-76
2022/07/01 02:55:42;;;;;;;1999.90;999.90;;;;;;;;;;5045449;27;21168;-76
2022/07/01 02:58:10;;;;;;;1999.90;999.90;;;;;;;;;;5035987;27;20403;-76
2022/07/01 03:00:38;;;;;;;1999.90;999.90;;;;;;;;;;5049042;27;20416;-75
2022/07/01 03:03:06;;;;;;;1999.90;999.90;;;;;;;;;;5049885;27;20417;-75
2022/07/01 03:05:35;;;;;;;1999.90;999.90;;;;;;;;;;5046368;27;20410;-76
2022/07/01 03:08:03;;;;;;;1999.90;999.90;;;;;;;;;;5047690;27;20420;-77
2022/07/01 03:10:31;;;;;;;1999.90;999.90;;;;;;;;;;5056705;27;20453;-77
2022/07/01 03:13:01;;;;;;;1999.90;999.90;;;;;;;;;;5059126;27;20414;-77
2022/07/01 03:15:29;;;;;;;1999.90;999.90;;;;;;;;;;5047273;27;20475;-77
2022/07/01 03:17:57;;;;;;;1999.90;999.90;;;;;;;;;;5042888;27;20419;-78
2022/07/01 03:20:25;;;;;;;1999.90;999.90;;;;;;;;;;5048184;27;20408;-77
2022/07/01 03:22:54;;;;;;;1999.90;999.90;;;;;;;;;;5044171;27;20401;-78
2022/07/01 03:25:37;;;;;;;1999.90;999.90;;;;;;;;;;5036734;27;20396;-76
2022/07/01 03:28:05;;;;;;;1999.90;999.90;;;;;;;;;;5050513;27;20435;-73
2022/07/01 03:30:34;;;;;;;1999.90;999.90;;;;;;;;;;5059179;28;20427;-74
2022/07/01 03:33:02;;;;;;;1999.90;999.90;;;;;;;;;;5048474;27;20502;-73
2022/07/01 03:35:40;;;;;;;1999.90;999.90;;;;;;;;;;5057762;27;20403;-73
2022/07/01 03:38:09;;;;;;;1999.90;999.90;;;;;;;;;;5056334;27;20411;-72
2022/07/01 03:40:37;;;;;;;1999.90;999.90;;;;;;;;;;5037834;27;20802;-73
2022/07/01 03:43:05;;;;;;;1999.90;999.90;;;;;;;;;;5056094;28;20486;-73
2022/07/01 03:45:33;;;;;;;1999.90;999.90;;;;;;;;;;5056997;27;20463;-73
2022/07/01 03:48:02;;;;;;;1999.90;999.90;;;;;;;;;;5056123;27;20466;-74
2022/07/01 03:50:30;;;;;;;1999.90;999.90;;;;;;;;;;5056821;27;20825;-73
2022/07/01 03:55:44;;;;;;;1999.90;999.90;;;;;;;;;;5057318;27;20442;-71
2022/07/01 03:58:12;;;;;;;1999.90;999.90;;;;;;;;;;5072977;27;20451;-72
2022/07/01 04:00:40;;;;;;;1999.90;999.90;;;;;;;;;;5056129;27;20491;-72
2022/07/01 04:03:08;;;;;;;1999.90;999.90;;;;;;;;;;5054811;28;20415;-73
2022/07/01 04:05:37;;;;;;;1999.90;999.90;;;;;;;;;;5054827;27;20401;-73
2022/07/01 04:08:05;;;;;;;1999.90;999.90;;;;;;;;;;5049913;27;20936;-73
2022/07/01 04:10:34;;;;;;;1999.90;999.90;;;;;;;;;;5056116;27;20399;-73
2022/07/01 04:13:04;;;;;;;1999.90;999.90;;;;;;;;;;5040735;27;20403;-73
2022/07/01 04:15:51;;;;;;;1999.90;999.90;;;;;;;;;;5057481;27;20390;-73
2022/07/01 04:18:20;;;;;;;1999.90;999.90;;;;;;;;;;5055970;27;20442;-73
2022/07/01 04:22:32;;;;;;;1999.90;999.90;;;;;;;;;;5040413;27;20502;-72
2022/07/01 04:23:34;;;;;;;1999.90;999.90;;;;;;;;;;5073834;28;20449;-73
2022/07/01 04:26:02;;;;;;;1999.90;999.90;;;;;;;;;;5033089;27;20548;-73
2022/07/01 04:28:52;;;;;;;1999.90;999.90;;;;;;;;;;5070394;27;20544;-72
2022/07/01 04:31:19;;;;;;;1999.90;999.90;;;;;;;;;;5053497;27;20451;-72
2022/07/01 04:33:48;;;;;;;1999.90;999.90;;;;;;;;;;5053498;27;20407;-73
2022/07/01 04:36:15;;;;;;;1999.90;999.90;;;;;;;;;;5053672;27;20389;-73
2022/07/01 04:38:43;;;;;;;1999.90;999.90;;;;;;;;;;5053178;27;20426;-72
2022/07/01 04:43:58;;;;;;;1999.90;999.90;;;;;;;;;;5057410;27;20782;-72
2022/07/01 04:46:26;;;;;;;1999.90;999.90;;;;;;;;;;5057496;27;20533;-72
2022/07/01 04:48:54;;;;;;;1999.90;999.90;;;;;;;;;;5060494;27;21319;-73
2022/07/01 04:51:21;;;;;;;1999.90;999.90;;;;;;;;;;5058505;27;20443;-72
2022/07/01 04:53:50;;;;;;;1999.90;999.90;;;;;;;;;;5058536;27;20468;-72
2022/07/01 04:56:18;;;;;;;1999.90;999.90;;;;;;;;;;5058329;27;20398;-72
2022/07/01 04:58:45;;;;;;;1999.90;999.90;;;;;;;;;;5060021;27;20395;-72
2022/07/01 05:01:15;;;;;;;1999.90;999.90;;;;;;;;;;5059060;28;20438;-72
2022/07/01 05:03:43;;;;;;;1999.90;999.90;;;;;;;;;;5041445;27;20441;-72
2022/07/01 05:06:11;;;;;;;1999.90;999.90;;;;;;;;;;5058509;27;20457;-73
2022/07/01 05:08:39;;;;;;;1999.90;999.90;;;;;;;;;;5057461;27;20875;-73
2022/07/01 05:11:07;;;;;;;1999.90;999.90;;;;;;;;;;5060579;27;20434;-72
2022/07/01 05:13:35;;;;;;;1999.90;999.90;;;;;;;;;;5060135;27;20435;-72
2022/07/01 05:16:03;;;;;;;1999.90;999.90;;;;;;;;;;5054402;27;20445;-72
2022/07/01 05:24:04;;;;;;;1999.90;999.90;;;;;;;;;;5059434;28;20803;-72
2022/07/01 05:26:32;;;;;;;1999.90;999.90;;;;;;;;;;5041736;28;20402;-72
2022/07/01 05:29:00;;;;;;;1999.90;999.90;;;;;;;;;;5061182;27;20415;-73
2022/07/01 05:31:28;;;;;;;1999.90;999.90;;;;;;;;;;5058611;27;20400;-73
2022/07/01 05:33:57;;;;;;;1999.90;999.90;;;;;;;;;;5059517;28;20407;-72
2022/07/01 05:36:31;;;;;;;1999.90;999.90;;;;;;;;;;5060870;28;20554;-73
2022/07/01 05:38:59;;;;;;;1999.90;999.90;;;;;;;;;;5060867;27;20465;-73
2022/07/01 05:41:27;;;;;;;1999.90;999.90;;;;;;;;;;5060740;28;20413;-73
2022/07/01 05:43:55;;;;;;;1999.90;999.90;;;;;;;;;;5060973;28;20404;-73
2022/07/01 05:46:22;;;;;;;1999.90;999.90;;;;;;;;;;5060684;28;20395;-73
2022/07/01 05:48:50;;;;;;;1999.90;999.90;;;;;;;;;;5060882;27;20483;-73
2022/07/01 05:51:20;;;;;;;1999.90;999.90;;;;;;;;;;5061706;28;20419;-73
2022/07/01 05:53:48;;;;;;;1999.90;999.90;;;;;;;;;;5060333;28;20446;-74
2022/07/01 05:56:16;;;;;;;1999.90;999.90;;;;;;;;;;5097800;22;21313;-74
2022/07/01 05:58:44;;;;;;;1999.90;999.90;;;;;;;;;;5127264;27;20362;-74
2022/07/01 06:01:12;;;;;;;1999.90;999.90;;;;;;;;;;5128346;27;20451;-74
2022/07/01 06:03:40;;;;;;;1999.90;999.90;;;;;;;;;;5127650;27;20463;-73
2022/07/01 06:06:08;;;;;;;1999.90;999.90;;;;;;;;;;5122409;27;20529;-74
2022/07/01 06:08:37;;;;;;;1999.90;999.90;;;;;;;;;;5093164;27;20366;-75
2022/07/01 06:11:05;;;;;;;1999.90;999.90;;;;;;;;;;5116362;27;20410;-76
2022/07/01 06:13:33;;;;;;;1999.90;999.90;;;;;;;;;;5115327;27;20541;-73
2022/07/01 06:16:06;;;;;;;1999.90;999.90;;;;;;;;;;5115698;27;20467;-75
2022/07/01 06:18:34;;;;;;;1999.90;999.90;;;;;;;;;;5114258;27;20391;-73
2022/07/01 06:21:02;;;;;;;1999.90;999.90;;;;;;;;;;5120028;27;20470;-73
2022/07/01 06:23:30;;;;;;;1999.90;999.90;;;;;;;;;;5112986;27;20414;-72
2022/07/01 06:25:59;;;;;;;1999.90;999.90;;;;;;;;;;5112198;27;20474;-75
2022/07/01 06:28:29;;;;;;;1999.90;999.90;;;;;;;;;;5123755;27;20438;-74
2022/07/01 06:30:58;;;;;;;1999.90;999.90;;;;;;;;;;5109672;27;20484;-75
2022/07/01 06:33:29;;;;;;;1999.90;999.90;;;;;;;;;;5118615;27;20469;-74
2022/07/01 06:35:57;;;;;;;1999.90;999.90;;;;;;;;;;5100130;27;20438;-73
2022/07/01 06:38:26;;;;;;;1999.90;999.90;;;;;;;;;;5114627;27;20383;-73
2022/07/01 06:43:40;;;;;;;1999.90;999.90;;;;;;;;;;5114078;27;21208;-74
2022/07/01 06:46:08;;;;;;;1999.90;999.90;;;;;;;;;;5113013;27;20393;-72
2022/07/01 06:48:36;;;;;;;1999.90;999.90;;;;;;;;;;5123314;27;20416;-75
2022/07/01 06:51:04;;;;;;;1999.90;999.90;;;;;;;;;;5112661;27;20527;-74
2022/07/01 06:53:32;;;;;;;1999.90;999.90;;;;;;;;;;5115848;27;20425;-74
2022/07/01 06:56:00;;;;;;;1999.90;999.90;;;;;;;;;;5109363;27;20868;-74
2022/07/01 06:58:28;;;;;;;1999.90;999.90;;;;;;;;;;5107741;27;20390;-74
2022/07/01 07:00:57;;;;;;;1999.90;999.90;;;;;;;;;;5123027;27;20421;-75
2022/07/01 07:03:25;;;;;;;1999.90;999.90;;;;;;;;;;5122951;27;20414;-75
2022/07/01 07:05:53;;;;;;;1999.90;999.90;;;;;;;;;;5123362;27;21931;-72
2022/07/01 07:08:21;;;;;;;1999.90;999.90;;;;;;;;;;5122529;27;20400;-71
2022/07/01 07:10:49;;;;;;;1999.90;999.90;;;;;;;;;;5123824;27;20404;-72
2022/07/01 07:13:16;;;;;;;1999.90;999.90;;;;;;;;;;5124149;27;20488;-73
2022/07/01 07:15:44;;;;;;;1999.90;999.90;;;;;;;;;;5123364;27;20386;-74
2022/07/01 07:18:14;;;;;;;1999.90;999.90;;;;;;;;;;5123523;27;20550;-74
2022/07/01 07:20:41;;;;;;;1999.90;999.90;;;;;;;;;;5123771;27;20394;-75
2022/07/01 07:23:10;;;;;;;1999.90;999.90;;;;;;;;;;5106634;27;20405;-75
2022/07/01 07:25:37;;;;;;;1999.90;999.90;;;;;;;;;;5124864;27;20469;-73
2022/07/01 07:28:05;;;;;;;1999.90;999.90;;;;;;;;;;5125592;27;20405;-75
2022/07/01 07:30:33;;;;;;;1999.90;999.90;;;;;;;;;;5126156;27;21208;-75
2022/07/01 07:33:01;;;;;;;1999.90;999.90;;;;;;;;;;5126013;27;21171;-75
2022/07/01 07:35:30;;;;;;;1999.90;999.90;;;;;;;;;;5125588;27;20470;-74
2022/07/01 07:37:58;;;;;;;1999.90;999.90;;;;;;;;;;5125738;27;20410;-74
2022/07/01 07:40:26;;;;;;;1999.90;999.90;;;;;;;;;;5124704;27;21192;-75
2022/07/01 07:42:54;;;;;;;1999.90;999.90;;;;;;;;;;5125079;27;20437;-75
2022/07/01 07:45:22;;;;;;;1999.90;999.90;;;;;;;;;;5124272;27;20385;-75
2022/07/01 07:47:49;;;;;;;1999.90;999.90;;;;;;;;;;5124537;27;20510;-75
2022/07/01 07:50:17;;;;;;;1999.90;999.90;;;;;;;;;;5124022;27;20417;-75
2022/07/01 07:52:46;;;;;;;1999.90;999.90;;;;;;;;;;5124803;27;20488;-74
2022/07/01 07:55:14;;;;;;;1999.90;999.90;;;;;;;;;;5124128;27;20890;-74
2022/07/01 07:57:42;;;;;;;1999.90;999.90;;;;;;;;;;5119056;27;20830;-73
2022/07/01 08:00:12;;;;;;;1999.90;999.90;;;;;;;;;;5092182;27;20486;-73
2022/07/01 08:02:40;;;;;;;1999.90;999.90;;;;;;;;;;5111445;27;20458;-73
2022/07/01 08:05:09;;;;;;;1999.90;999.90;;;;;;;;;;5107628;27;20438;-73
2022/07/01 08:07:37;;;;;;;1999.90;999.90;;;;;;;;;;5110588;27;20421;-72
2022/07/01 08:10:07;;;;;;;1999.90;999.90;;;;;;;;;;5111142;27;20910;-73
2022/07/01 08:12:35;;;;;;;1999.90;999.90;;;;;;;;;;5125278;27;20439;-73
2022/07/01 08:15:04;;;;;;;1999.90;999.90;;;;;;;;;;5113541;27;20924;-73
2022/07/01 08:17:32;;;;;;;1999.90;999.90;;;;;;;;;;5110232;27;21005;-74
2022/07/01 08:20:00;;;;;;;1999.90;999.90;;;;;;;;;;5112725;27;20423;-73
2022/07/01 08:22:28;;;;;;;1999.90;999.90;;;;;;;;;;5115397;27;20505;-73
2022/07/01 08:24:56;;;;;;;1999.90;999.90;;;;;;;;;;5120225;27;20420;-73
2022/07/01 08:27:25;;;;;;;1999.90;999.90;;;;;;;;;;5112611;27;20398;-72
2022/07/01 08:29:53;;;;;;;1999.90;999.90;;;;;;;;;;5123129;27;20389;-72
2022/07/01 08:32:22;;;;;;;1999.90;999.90;;;;;;;;;;5117013;27;20474;-73
2022/07/01 08:34:49;;;;;;;1999.90;999.90;;;;;;;;;;5119562;27;20392;-73
2022/07/01 08:37:17;;;;;;;1999.90;999.90;;;;;;;;;;5113834;27;20389;-73
2022/07/01 08:39:45;;;;;;;1999.90;999.90;;;;;;;;;;5113924;27;20428;-72
2022/07/01 08:42:13;;;;;;;1999.90;999.90;;;;;;;;;;5108497;27;20540;-73
2022/07/01 08:44:42;;;;;;;1999.90;999.90;;;;;;;;;;5121563;27;20397;-72
2022/07/01 08:47:12;;;;;;;1999.90;999.90;;;;;;;;;;5110998;27;20484;-73
2022/07/01 08:49:40;;;;;;;1999.90;999.90;;;;;;;;;;5118900;27;20390;-72
2022/07/01 08:52:09;;;;;;;1999.90;999.90;;;;;;;;;;5115190;27;20500;-72
2022/07/01 08:54:38;;;;;;;1999.90;999.90;;;;;;;;;;5100279;27;20395;-72
2022/07/01 08:57:07;;;;;;;1999.90;999.90;;;;;;;;;;5118896;27;20816;-73
2022/07/01 08:59:35;;;;;;;1999.90;999.90;;;;;;;;;;5128182;27;20412;-72
2022/07/01 09:02:06;;;;;;;1999.90;999.90;;;;;;;;;;5127537;27;20459;-72
2022/07/01 09:04:34;;;;;;;1999.90;999.90;;;;;;;;;;5110128;27;20382;-72
2022/07/01 09:07:04;;;;;;;1999.90;999.90;;;;;;;;;;5121466;27;20393;-72
2022/07/01 09:09:34;;;;;;;1999.90;999.90;;;;;;;;;;5124410;27;20838;-72
2022/07/01 09:12:03;;;;;;;1999.90;999.90;;;;;;;;;;5122419;27;20418;-72
2022/07/01 09:14:31;;;;;;;1999.90;999.90;;;;;;;;;;5125795;27;20480;-73
2022/07/01 09:17:00;;;;;;;1999.90;999.90;;;;;;;;;;5126639;27;20405;-73
2022/07/01 09:19:30;;;;;;;1999.90;999.90;;;;;;;;;;5126428;27;20401;-73
2022/07/01 09:22:00;;;;;;;1999.90;999.90;;;;;;;;;;5123954;27;20816;-73
2022/07/01 09:24:29;;;;;;;1999.90;999.90;;;;;;;;;;5126660;27;20389;-72
2022/07/01 09:26:58;;;;;;;1999.90;999.90;;;;;;;;;;5107461;27;20452;-72
2022/07/01 09:29:26;;;;;;;1999.90;999.90;;;;;;;;;;5116533;27;20498;-73
2022/07/01 09:31:54;;;;;;;1999.90;999.90;;;;;;;;;;5123635;27;20980;-73
2022/07/01 09:34:22;;;;;;;1999.90;999.90;;;;;;;;;;5107498;27;20397;-73
2022/07/01 09:36:55;;;;;;;1999.90;999.90;;;;;;;;;;5126789;27;20417;-73
2022/07/01 09:39:23;;;;;;;1999.90;999.90;;;;;;;;;;5125683;27;20428;-70
2022/07/01 09:42:06;;;;;;;1999.90;999.90;;;;;;;;;;5125910;27;21233;-73
2022/07/01 09:44:34;;;;;;;1999.90;999.90;;;;;;;;;;5125799;27;20992;-72
2022/07/01 09:47:05;;;;;;;1999.90;999.90;;;;;;;;;;5133113;27;20376;-72
2022/07/01 09:49:33;;;;;;;1999.90;999.90;;;;;;;;;;5130345;27;20385;-72
2022/07/01 09:52:02;;;;;;;1999.90;999.90;;;;;;;;;;5126873;27;20502;-73
2022/07/01 09:54:30;;;;;;;1999.90;999.90;;;;;;;;;;5126603;27;20494;-72
2022/07/01 09:56:58;;;;;;;1999.90;999.90;;;;;;;;;;5125440;27;20378;-73
2022/07/01 09:59:25;;;;;;;1999.90;999.90;;;;;;;;;;5125724;27;20390;-72
2022/07/01 10:01:53;;;;;;;1999.90;999.90;;;;;;;;;;5108866;27;20409;-73
2022/07/01 10:04:31;;;;;;;1999.90;999.90;;;;;;;;;;5125110;27;20386;-72
2022/07/01 10:07:15;;;;;;;1999.90;999.90;;;;;;;;;;5125268;27;20394;-71
2022/07/01 10:10:10;;;;;;;1999.90;999.90;;;;;;;;;;5126466;27;20416;-73
2022/07/01 10:12:40;;;;;;;1999.90;999.90;;;;;;;;;;5061831;27;20943;-72
2022/07/01 10:15:09;;;;;;;1999.90;999.90;;;;;;;;;;5113892;27;20385;-72
2022/07/01 10:17:38;;;;;;;1999.90;999.90;;;;;;;;;;5117291;27;20441;-73
2022/07/01 10:20:11;;;;;;;1999.90;999.90;;;;;;;;;;5122335;27;20386;-72
2022/07/01 10:22:40;;;;;;;1999.90;999.90;;;;;;;;;;5123591;27;20417;-72
2022/07/01 10:25:29;;;;;;;1999.90;999.90;;;;;;;;;;5123996;27;31255;-73
2022/07/01 10:28:12;;;;;;;1999.90;999.90;;;;;;;;;;5125076;27;20464;-74
2022/07/01 10:30:49;;;;;;;1999.90;999.90;;;;;;;;;;5122026;27;21257;-72
2022/07/01 10:33:31;;;;;;;1999.90;999.90;;;;;;;;;;5126484;27;20409;-72
2022/07/01 10:36:10;;;;;;;1999.90;999.90;;;;;;;;;;5124906;27;20446;-73
2022/07/01 10:38:52;;;;;;;1999.90;999.90;;;;;;;;;;5125770;27;20476;-73
2022/07/01 10:41:25;;;;;;;1999.90;999.90;;;;;;;;;;5122649;27;20479;-73
2022/07/01 10:43:54;;;;;;;1999.90;999.90;;;;;;;;;;5126861;27;20421;-73
2022/07/01 10:46:40;;;;;;;1999.90;999.90;;;;;;;;;;5125436;27;20479;-73
2022/07/01 10:49:09;;;;;;;1999.90;999.90;;;;;;;;;;5120129;27;21135;-73
2022/07/01 10:51:46;;;;;;;1999.90;999.90;;;;;;;;;;5126753;27;20447;-73
2022/07/01 10:54:14;;;;;;;1999.90;999.90;;;;;;;;;;5125139;27;20392;-73
2022/07/01 10:56:43;;;;;;;1999.90;999.90;;;;;;;;;;5124622;27;20361;-73
2022/07/01 10:59:18;;;;;;;1999.90;999.90;;;;;;;;;;5098226;27;20394;-72
2022/07/01 11:01:46;;;;;;;1999.90;999.90;;;;;;;;;;5122771;27;20377;-72
2022/07/01 11:04:14;;;;;;;1999.90;999.90;;;;;;;;;;5126545;27;20402;-73
2022/07/01 11:06:42;;;;;;;1999.90;999.90;;;;;;;;;;5125245;27;20388;-73
2022/07/01 11:09:12;;;;;;;1999.90;999.90;;;;;;;;;;5123677;27;20951;-73
2022/07/01 11:11:40;;;;;;;1999.90;999.90;;;;;;;;;;5124890;27;20418;-73
2022/07/01 11:14:10;;;;;;;1999.90;999.90;;;;;;;;;;5107112;27;20397;-72
2022/07/01 11:16:38;;;;;;;1999.90;999.90;;;;;;;;;;5123519;27;20397;-74
2022/07/01 11:19:06;;;;;;;1999.90;999.90;;;;;;;;;;5125799;27;20409;-73
2022/07/01 11:21:34;;;;;;;1999.90;999.90;;;;;;;;;;5140848;27;20398;-73
2022/07/01 11:24:02;;;;;;;1999.90;999.90;;;;;;;;;;5123783;27;20992;-73
2022/07/01 11:26:30;;;;;;;1999.90;999.90;;;;;;;;;;5123681;27;20389;-72
2022/07/01 11:28:58;;;;;;;1999.90;999.90;;;;;;;;;;5125325;27;20469;-72
2022/07/01 11:31:33;;;;;;;1999.90;999.90;;;;;;;;;;5125278;27;20380;-72
2022/07/01 11:34:02;;;;;;;1999.90;999.90;;;;;;;;;;5123826;27;20492;-72
2022/07/01 11:39:24;;;;;;;1999.90;999.90;;;;;;;;;;5119333;27;20469;-72
2022/07/01 11:41:53;;;;;;;1999.90;999.90;;;;;;;;;;5123313;27;20546;-72
2022/07/01 11:44:28;;;;;;;1999.90;999.90;;;;;;;;;;5123423;27;20419;-72
2022/07/01 11:46:57;;;;;;;1999.90;999.90;;;;;;;;;;5125455;27;20633;-72
2022/07/01 11:49:25;;;;;;;1999.90;999.90;;;;;;;;;;5124456;27;20427;-72
2022/07/01 11:51:57;;;;;;;1999.90;999.90;;;;;;;;;;5125183;27;20385;-72
2022/07/01 11:54:25;;;;;;;1999.90;999.90;;;;;;;;;;5129428;27;20405;-72
2022/07/01 11:56:53;;;;;;;1999.90;999.90;;;;;;;;;;5129950;27;20468;-72
2022/07/01 11:59:21;;;;;;;1999.90;999.90;;;;;;;;;;5141940;27;20393;-72
2022/07/01 12:01:53;;;;;;;1999.90;999.90;;;;;;;;;;5124544;27;20536;-71
2022/07/01 12:04:22;;;;;;;1999.90;999.90;;;;;;;;;;5127114;27;20389;-72
2022/07/01 12:06:50;;;;;;;1999.90;999.90;;;;;;;;;;5136609;27;20400;-73
2022/07/01 12:09:19;;;;;;;1999.90;999.90;;;;;;;;;;5127542;27;20421;-73
2022/07/01 12:11:48;;;;;;;1999.90;999.90;;;;;;;;;;5108809;27;20409;-72
2022/07/01 12:14:23;;;;;;;1999.90;999.90;;;;;;;;;;5119693;27;20452;-73
2022/07/01 12:16:52;;;;;;;1999.90;999.90;;;;;;;;;;5131995;27;22276;-72
2022/07/01 12:19:27;;;;;;;1999.90;999.90;;;;;;;;;;5130442;27;20414;-72
2022/07/01 12:21:57;;;;;;;1999.90;999.90;;;;;;;;;;5129285;27;20382;-72
2022/07/01 12:24:25;;;;;;;1999.90;999.90;;;;;;;;;;5115048;27;20542;-72
2022/07/01 12:26:54;;;;;;;1999.90;999.90;;;;;;;;;;5118171;27;20393;-72
2022/07/01 12:29:23;;;;;;;1999.90;999.90;;;;;;;;;;5120325;27;20513;-72
2022/07/01 12:31:58;;;;;;;1999.90;999.90;;;;;;;;;;5120755;27;20474;-71
2022/07/01 12:34:42;;;;;;;1999.90;999.90;;;;;;;;;;5132636;27;21415;-72
2022/07/01 12:37:11;;;;;;;1999.90;999.90;;;;;;;;;;5127054;27;20409;-73
2022/07/01 12:39:42;;;;;;;1999.90;999.90;;;;;;;;;;5132521;27;20536;-71
2022/07/01 12:42:20;;;;;;;1999.90;999.90;;;;;;;;;;5123861;27;20957;-71
2022/07/01 12:44:48;;;;;;;1999.90;999.90;;;;;;;;;;5110774;27;20837;-71
2022/07/01 12:47:24;;;;;;;1999.90;999.90;;;;;;;;;;5122523;27;20486;-71
2022/07/01 12:50:07;;;;;;;1999.90;999.90;;;;;;;;;;5124435;27;20417;-72
2022/07/01 12:52:37;;;;;;;1999.90;999.90;;;;;;;;;;5145168;27;20565;-71
2022/07/01 12:55:13;;;;;;;1999.90;999.90;;;;;;;;;;5113988;27;20889;-71
2022/07/01 12:57:41;;;;;;;1999.90;999.90;;;;;;;;;;5135764;27;20888;-70
2022/07/01 13:00:09;;;;;;;1999.90;999.90;;;;;;;;;;5116618;27;20391;-71
2022/07/01 13:02:37;;;;;;;1999.90;999.90;;;;;;;;;;5125283;27;20399;-71
2022/07/01 13:05:05;;;;;;;1999.90;999.90;;;;;;;;;;5120335;27;20397;-71
2022/07/01 13:07:32;;;;;;;1999.90;999.90;;;;;;;;;;5133420;27;20971;-71
2022/07/01 13:10:02;;;;;;;1999.90;999.90;;;;;;;;;;5123650;27;20400;-71
2022/07/01 13:12:30;;;;;;;1999.90;999.90;;;;;;;;;;5114026;27;20868;-71
2022/07/01 13:14:58;;;;;;;1999.90;999.90;;;;;;;;;;5125119;27;20967;-71
2022/07/01 13:17:26;;;;;;;1999.90;999.90;;;;;;;;;;5124986;27;21796;-71
2022/07/01 13:19:54;;;;;;;1999.90;999.90;;;;;;;;;;5123941;27;21324;-71
2022/07/01 13:22:23;;;;;;;1999.90;999.90;;;;;;;;;;5131360;27;20429;-70
2022/07/01 13:24:51;;;;;;;1999.90;999.90;;;;;;;;;;5122596;27;20492;-71
2022/07/01 13:27:20;;;;;;;1999.90;999.90;;;;;;;;;;5132018;27;20469;-72
2022/07/01 13:29:48;;;;;;;1999.90;999.90;;;;;;;;;;5124462;27;20825;-71
2022/07/01 13:32:16;;;;;;;1999.90;999.90;;;;;;;;;;5130970;27;20425;-71
2022/07/01 13:34:44;;;;;;;1999.90;999.90;;;;;;;;;;5109953;27;20882;-71
2022/07/01 13:37:13;;;;;;;1999.90;999.90;;;;;;;;;;5118724;27;20385;-71
2022/07/01 13:39:41;;;;;;;1999.90;999.90;;;;;;;;;;5128213;27;20852;-71
2022/07/01 13:42:10;;;;;;;1999.90;999.90;;;;;;;;;;5104689;27;20397;-71
2022/07/01 13:44:39;;;;;;;1999.90;999.90;;;;;;;;;;5105500;27;21074;-71
2022/07/01 13:47:09;;;;;;;1999.90;999.90;;;;;;;;;;5118030;27;20428;-71
2022/07/01 13:49:37;;;;;;;1999.90;999.90;;;;;;;;;;5095836;27;20520;-71
2022/07/01 13:52:06;;;;;;;1999.90;999.90;;;;;;;;;;5114391;27;20411;-71
2022/07/01 13:54:33;;;;;;;1999.90;999.90;;;;;;;;;;5129527;27;20423;-71
2022/07/01 13:57:01;;;;;;;1999.90;999.90;;;;;;;;;;5129723;27;20377;-71
2022/07/01 13:59:29;;;;;;;1999.90;999.90;;;;;;;;;;5124890;27;20400;-71
2022/07/01 14:01:59;;;;;;;1999.90;999.90;;;;;;;;;;5121989;27;20390;-72
2022/07/01 14:04:27;;;;;;;1999.90;999.90;;;;;;;;;;5126626;27;20445;-71
2022/07/01 14:06:55;;;;;;;1999.90;999.90;;;;;;;;;;5115686;27;20491;-70
2022/07/01 14:09:23;;;;;;;1999.90;999.90;;;;;;;;;;5122584;27;21354;-71